createdAt,value
2022-07-29T00:00:55.072Z,102137.78
2022-07-29T00:03:21.550Z,102136.28
2022-07-29T00:05:49.066Z,102136.44
2022-07-29T00:08:16.497Z,102137.63
2022-07-29T00:10:43.238Z,102129.88
2022-07-29T00:13:09.637Z,102132.88
2022-07-29T00:15:36.096Z,102129.53
2022-07-29T00:18:02.690Z,102130.84
2022-07-29T00:20:29.082Z,102129.53
2022-07-29T00:22:55.618Z,102125.97
2022-07-29T00:25:22.087Z,102115.50
2022-07-29T00:27:48.587Z,102111.31
2022-07-29T00:30:15.137Z,102102.16
2022-07-29T00:32:41.898Z,102100.50
2022-07-29T00:35:27.789Z,102107.94
2022-07-29T00:37:54.231Z,102100.16
2022-07-29T00:40:23.585Z,102091.03
2022-07-29T00:42:53.380Z,102098.47
2022-07-29T00:45:20.036Z,102089.72
2022-07-29T00:47:47.520Z,102092.75
2022-07-29T00:50:14.910Z,102082.97
2022-07-29T00:52:42.476Z,102081.94
2022-07-29T00:55:13.634Z,102083.97
2022-07-29T00:57:41.415Z,102057.75
2022-07-29T01:00:12.041Z,102072.84
2022-07-29T01:02:38.647Z,102077.41
2022-07-29T01:05:06.743Z,102073.50
2022-07-29T01:07:36.043Z,102062.69
2022-07-29T01:10:07.874Z,102066.41
2022-07-29T01:12:36.346Z,102042.38
2022-07-29T01:15:05.562Z,102062.81
2022-07-29T01:17:38.920Z,102058.28
2022-07-29T01:20:13.550Z,102056.91
2022-07-29T01:22:45.915Z,102052.03
2022-07-29T01:25:21.220Z,102044.44
2022-07-29T01:28:23.912Z,102044.78
2022-07-29T01:30:54.597Z,102027.38
2022-07-29T01:33:42.768Z,102026.53
2022-07-29T01:36:15.565Z,102029.91
2022-07-29T01:38:46.355Z,102025.19
2022-07-29T01:41:18.608Z,102033.44
2022-07-29T01:43:55.766Z,102029.56
2022-07-29T01:46:28.301Z,102022.50
2022-07-29T01:49:00.175Z,102020.44
2022-07-29T01:51:33.259Z,102025.19
2022-07-29T01:54:15.680Z,102024.34
2022-07-29T01:56:44.532Z,102015.22
2022-07-29T01:59:11.781Z,102014.56
2022-07-29T02:01:41.798Z,102007.28
2022-07-29T02:04:11.129Z,102003.06
2022-07-29T02:06:40.542Z,102005.28
2022-07-29T02:09:08.449Z,101999.84
2022-07-29T02:11:38.600Z,101998.34
2022-07-29T02:14:07.205Z,101996.28
2022-07-29T02:16:35.619Z,102001.53
2022-07-29T02:19:03.829Z,101994.78
2022-07-29T02:21:32.841Z,101991.91
2022-07-29T02:24:01.907Z,101977.06
2022-07-29T02:26:30.188Z,101975.72
2022-07-29T02:29:00.000Z,101992.75
2022-07-29T02:31:33.471Z,101980.25
2022-07-29T02:34:02.925Z,101983.16
2022-07-29T02:36:31.068Z,101978.94
2022-07-29T02:38:58.679Z,101988.03
2022-07-29T02:41:31.184Z,101983.81
2022-07-29T02:44:06.058Z,101987.84
2022-07-29T02:46:35.520Z,101976.53
2022-07-29T02:49:16.950Z,101975.53
2022-07-29T02:51:51.884Z,101979.91
2022-07-29T02:54:31.988Z,101951.91
2022-07-29T02:57:04.810Z,101973.81
2022-07-29T02:59:35.381Z,101969.47
2022-07-29T03:02:04.348Z,101963.03
2022-07-29T03:04:33.247Z,101968.44
2022-07-29T03:07:01.713Z,101963.38
2022-07-29T03:09:29.085Z,101956.94
2022-07-29T03:11:56.846Z,101962.22
2022-07-29T03:14:24.297Z,101952.22
2022-07-29T03:16:52.087Z,101956.94
2022-07-29T03:19:19.541Z,101951.91
2022-07-29T03:21:46.035Z,101950.38
2022-07-29T03:24:35.530Z,101953.91
2022-07-29T03:27:02.749Z,101921.66
2022-07-29T03:29:34.046Z,101958.47
2022-07-29T03:32:03.332Z,101957.63
2022-07-29T03:34:30.801Z,101962.53
2022-07-29T03:36:57.225Z,101962.69
2022-07-29T03:39:26.577Z,101962.53
2022-07-29T03:41:58.106Z,101955.09
2022-07-29T03:44:26.756Z,101942.94
2022-07-29T03:46:56.496Z,101954.75
2022-07-29T03:49:24.706Z,101955.59
2022-07-29T03:51:51.435Z,101934.00
2022-07-29T03:54:18.110Z,101955.59
2022-07-29T03:56:48.384Z,101954.25
2022-07-29T03:59:17.285Z,101964.72
2022-07-29T04:01:44.191Z,101949.69
2022-07-29T04:04:10.937Z,101955.75
2022-07-29T04:06:41.097Z,101952.06
2022-07-29T04:09:09.766Z,101941.09
2022-07-29T04:12:01.705Z,101948.16
2022-07-29T04:14:24.007Z,101949.84
2022-07-29T04:16:50.397Z,101939.53
2022-07-29T04:19:16.833Z,101941.06
2022-07-29T04:21:43.760Z,101943.09
2022-07-29T04:24:10.156Z,101945.47
2022-07-29T04:26:36.540Z,101945.78
2022-07-29T04:29:02.961Z,101927.56
2022-07-29T04:31:29.543Z,101945.78
2022-07-29T04:33:56.030Z,101945.28
2022-07-29T04:36:29.277Z,101938.22
2022-07-29T04:38:56.685Z,101939.69
2022-07-29T04:41:23.180Z,101945.28
2022-07-29T04:43:50.021Z,101951.22
2022-07-29T04:46:16.782Z,101947.16
2022-07-29T04:48:43.263Z,101947.53
2022-07-29T04:51:09.708Z,101947.84
2022-07-29T04:53:36.113Z,101950.19
2022-07-29T04:56:03.203Z,101945.09
2022-07-29T04:58:29.731Z,101950.19
2022-07-29T05:00:56.263Z,101935.81
2022-07-29T05:03:22.655Z,101887.19
2022-07-29T05:05:49.248Z,101940.66
2022-07-29T05:08:15.708Z,101946.34
2022-07-29T05:10:42.215Z,101937.91
2022-07-29T05:13:08.933Z,101934.72
2022-07-29T05:15:35.966Z,101940.06
2022-07-29T05:18:02.737Z,101936.47
2022-07-29T05:20:30.325Z,101940.22
2022-07-29T05:22:58.669Z,101939.28
2022-07-29T05:25:43.719Z,101937.75
2022-07-29T05:28:12.224Z,101935.94
2022-07-29T05:30:38.857Z,101926.13
2022-07-29T05:33:05.351Z,101937.22
2022-07-29T05:35:31.796Z,101935.16
2022-07-29T05:37:58.203Z,101929.84
2022-07-29T05:40:24.667Z,101931.94
2022-07-29T05:42:51.095Z,101924.22
2022-07-29T05:45:17.519Z,101926.84
2022-07-29T05:47:43.925Z,101936.75
2022-07-29T05:50:10.388Z,101929.56
2022-07-29T05:52:36.813Z,101933.94
2022-07-29T05:55:05.244Z,101931.00
2022-07-29T05:57:32.097Z,101919.16
2022-07-29T05:59:58.769Z,101924.91
2022-07-29T06:02:25.419Z,101943.72
2022-07-29T06:04:51.923Z,101938.94
2022-07-29T06:07:18.810Z,101931.97
2022-07-29T06:09:45.299Z,101932.50
2022-07-29T06:12:11.700Z,101919.88
2022-07-29T06:14:39.146Z,101927.91
2022-07-29T06:17:06.541Z,101938.69
2022-07-29T06:19:35.662Z,101940.00
2022-07-29T06:22:02.418Z,101935.41
2022-07-29T06:24:29.033Z,101939.53
2022-07-29T06:26:55.601Z,101934.19
2022-07-29T06:29:21.991Z,101927.81
2022-07-29T06:31:48.367Z,101931.31
2022-07-29T06:34:15.075Z,101924.53
2022-07-29T06:36:41.835Z,101933.78
2022-07-29T06:39:09.358Z,101941.38
2022-07-29T06:41:38.010Z,101941.25
2022-07-29T06:44:05.579Z,101946.63
2022-07-29T06:46:32.109Z,101950.38
2022-07-29T06:48:58.586Z,101941.47
2022-07-29T06:51:25.178Z,101953.28
2022-07-29T06:53:59.544Z,101944.28
2022-07-29T06:56:38.513Z,101947.00
2022-07-29T06:59:06.755Z,101939.88
2022-07-29T07:01:33.236Z,101943.59
2022-07-29T07:03:59.709Z,101940.69
2022-07-29T07:06:26.206Z,101943.13
2022-07-29T07:08:52.609Z,101943.22
2022-07-29T07:11:19.137Z,101946.69
2022-07-29T07:13:45.591Z,101905.63
2022-07-29T07:16:12.115Z,101954.28
2022-07-29T07:18:38.569Z,101960.91
2022-07-29T07:21:05.967Z,101965.19
2022-07-29T07:23:32.416Z,101960.72
2022-07-29T07:25:58.833Z,101933.13
2022-07-29T07:28:25.324Z,101955.34
2022-07-29T07:30:52.550Z,101958.41
2022-07-29T07:33:19.404Z,101960.09
2022-07-29T07:35:45.879Z,101935.75
2022-07-29T07:38:12.782Z,101953.31
2022-07-29T07:40:39.351Z,101954.06
2022-07-29T07:43:05.758Z,101955.44
2022-07-29T07:45:35.248Z,101952.38
2022-07-29T07:48:01.761Z,101950.59
2022-07-29T07:50:28.375Z,101952.28
2022-07-29T07:52:59.472Z,101950.00
2022-07-29T07:55:27.199Z,101952.38
2022-07-29T07:57:54.459Z,101951.47
2022-07-29T08:00:22.929Z,101946.03
2022-07-29T08:02:50.852Z,101958.16
2022-07-29T08:05:18.060Z,101956.78
2022-07-29T08:07:46.476Z,101966.38
2022-07-29T08:10:14.755Z,101945.84
2022-07-29T08:12:42.400Z,101947.25
2022-07-29T08:15:09.443Z,101945.50
2022-07-29T08:17:35.876Z,101949.25
2022-07-29T08:20:02.615Z,101958.78
2022-07-29T08:22:29.488Z,101958.91
2022-07-29T08:24:57.049Z,101950.22
2022-07-29T08:27:42.967Z,101953.09
2022-07-29T08:30:11.157Z,101949.78
2022-07-29T08:32:53.326Z,101945.03
2022-07-29T08:35:21.941Z,101942.19
2022-07-29T08:37:48.446Z,101936.66
2022-07-29T08:40:18.152Z,101936.34
2022-07-29T08:42:44.965Z,101943.56
2022-07-29T08:45:11.832Z,101944.03
2022-07-29T08:47:43.184Z,101943.88
2022-07-29T08:50:11.001Z,101938.75
2022-07-29T08:52:40.028Z,101935.72
2022-07-29T08:55:11.276Z,101940.34
2022-07-29T08:57:40.005Z,101928.19
2022-07-29T09:00:19.154Z,101942.47
2022-07-29T09:02:52.573Z,101937.38
2022-07-29T09:05:20.081Z,101933.47
2022-07-29T09:07:48.897Z,101940.78
2022-07-29T09:10:15.509Z,101938.25
2022-07-29T09:12:42.243Z,101940.16
2022-07-29T09:15:09.113Z,101888.31
2022-07-29T09:17:50.235Z,101913.31
2022-07-29T09:20:23.196Z,101918.16
2022-07-29T09:22:51.735Z,101899.88
2022-07-29T09:25:38.211Z,101920.25
2022-07-29T09:28:11.797Z,101907.03
2022-07-29T09:30:55.874Z,101907.66
2022-07-29T09:33:23.946Z,101920.88
2022-07-29T09:36:07.477Z,101920.69
2022-07-29T09:38:34.617Z,101930.72
2022-07-29T09:41:05.715Z,101924.00
2022-07-29T09:43:33.247Z,101925.69
2022-07-29T09:46:13.178Z,101897.53
2022-07-29T09:48:40.066Z,101913.25
2022-07-29T09:51:08.396Z,101923.03
2022-07-29T09:53:38.020Z,101926.75
2022-07-29T09:56:05.837Z,101929.03
2022-07-29T09:58:38.187Z,101934.69
2022-07-29T10:01:04.928Z,101929.09
2022-07-29T10:03:31.544Z,101917.28
2022-07-29T10:06:24.962Z,101925.47
2022-07-29T10:08:51.442Z,101921.84
2022-07-29T10:11:18.660Z,101924.63
2022-07-29T10:13:47.897Z,101927.31
2022-07-29T10:16:16.281Z,101925.91
2022-07-29T10:18:44.735Z,101913.44
2022-07-29T10:21:11.614Z,101917.50
2022-07-29T10:24:00.883Z,101910.53
2022-07-29T10:26:29.129Z,101920.06
2022-07-29T10:28:56.518Z,101922.09
2022-07-29T10:31:32.749Z,101913.25
2022-07-29T10:34:11.698Z,101916.94
2022-07-29T10:36:57.299Z,101915.69
2022-07-29T10:39:48.896Z,101910.81
2022-07-29T10:42:29.791Z,101912.22
2022-07-29T10:45:02.706Z,101893.72
2022-07-29T10:47:31.589Z,101914.69
2022-07-29T10:50:05.365Z,101916.22
2022-07-29T10:52:50.311Z,101915.22
2022-07-29T10:55:37.463Z,101914.38
2022-07-29T10:58:24.479Z,101905.66
2022-07-29T11:00:52.999Z,101914.66
2022-07-29T11:03:53.468Z,101916.19
2022-07-29T11:06:26.980Z,101912.59
2022-07-29T11:09:37.685Z,101913.59
2022-07-29T11:12:25.433Z,101915.13
2022-07-29T11:14:52.995Z,101912.59
2022-07-29T11:17:19.692Z,101910.94
2022-07-29T11:19:51.207Z,101903.41
2022-07-29T11:22:35.683Z,101917.19
2022-07-29T11:25:19.336Z,101909.00
2022-07-29T11:28:25.392Z,101927.09
2022-07-29T11:30:53.653Z,101900.88
2022-07-29T11:33:54.193Z,101919.19
2022-07-29T11:36:27.943Z,101920.94
2022-07-29T11:39:36.445Z,101910.47
2022-07-29T11:42:32.094Z,101913.22
2022-07-29T11:45:04.392Z,101899.75
2022-07-29T11:47:54.695Z,101912.56
2022-07-29T11:50:51.137Z,101910.59
2022-07-29T11:53:17.907Z,101910.97
2022-07-29T11:58:31.639Z,101913.88
2022-07-29T12:00:58.811Z,101892.88
2022-07-29T12:03:33.490Z,101905.81
2022-07-29T12:06:04.115Z,101905.41
2022-07-29T12:08:31.106Z,101910.56
2022-07-29T12:10:57.570Z,101901.88
2022-07-29T12:13:37.202Z,101903.41
2022-07-29T12:16:05.391Z,101896.53
2022-07-29T12:18:32.699Z,101902.94
2022-07-29T12:21:03.385Z,101883.06
2022-07-29T12:23:35.090Z,101867.47
2022-07-29T12:26:05.508Z,101891.88
2022-07-29T12:28:38.420Z,101881.78
2022-07-29T12:31:05.779Z,101885.59
2022-07-29T12:33:32.308Z,101876.16
2022-07-29T12:36:12.846Z,101890.03
2022-07-29T12:38:44.268Z,101884.41
2022-07-29T12:41:11.222Z,101888.81
2022-07-29T12:43:37.724Z,101886.66
2022-07-29T12:46:15.100Z,101890.19
2022-07-29T12:48:43.302Z,101896.06
2022-07-29T12:51:12.529Z,101886.63
2022-07-29T12:53:39.139Z,101894.09
2022-07-29T12:56:20.566Z,101886.06
2022-07-29T12:58:53.420Z,101890.91
2022-07-29T13:01:21.021Z,101890.75
2022-07-29T13:03:56.882Z,101885.63
2022-07-29T13:06:39.575Z,101885.31
2022-07-29T13:09:09.388Z,101882.03
2022-07-29T13:11:39.185Z,101884.56
2022-07-29T13:14:08.131Z,101888.38
2022-07-29T13:16:34.572Z,101883.09
2022-07-29T13:19:13.970Z,101885.72
2022-07-29T13:21:40.587Z,101878.56
2022-07-29T13:24:08.127Z,101868.69
2022-07-29T13:26:35.185Z,101873.25
2022-07-29T13:29:01.658Z,101871.28
2022-07-29T13:31:28.200Z,101871.09
2022-07-29T13:33:54.656Z,101865.03
2022-07-29T13:36:21.337Z,101865.31
2022-07-29T13:38:48.228Z,101865.56
2022-07-29T13:41:14.775Z,101865.50
2022-07-29T13:43:41.163Z,101864.91
2022-07-29T13:46:07.679Z,101874.47
2022-07-29T13:48:34.110Z,101867.84
2022-07-29T13:51:00.549Z,101874.25
2022-07-29T13:53:27.371Z,101878.59
2022-07-29T13:55:54.139Z,101872.16
2022-07-29T13:58:20.590Z,101874.31
2022-07-29T14:00:47.617Z,101872.19
2022-07-29T14:03:14.006Z,101864.91
2022-07-29T14:05:40.397Z,101869.31
2022-07-29T14:08:06.791Z,101861.22
2022-07-29T14:10:33.248Z,101871.13
2022-07-29T14:12:59.690Z,101872.53
2022-07-29T14:15:26.231Z,101870.50
2022-07-29T14:17:52.692Z,101872.69
2022-07-29T14:20:19.894Z,101869.53
2022-07-29T14:22:46.325Z,101859.66
2022-07-29T14:25:14.537Z,101863.47
2022-07-29T14:27:41.810Z,101863.09
2022-07-29T14:30:09.217Z,101849.06
2022-07-29T14:32:35.604Z,101850.63
2022-07-29T14:35:02.016Z,101860.25
2022-07-29T14:37:28.500Z,101860.53
2022-07-29T14:40:07.041Z,101860.56
2022-07-29T14:42:33.453Z,101857.91
2022-07-29T14:44:59.951Z,101847.03
2022-07-29T14:47:26.392Z,101845.53
2022-07-29T14:49:52.857Z,101845.25
2022-07-29T14:52:19.275Z,101845.50
2022-07-29T14:54:45.754Z,101850.03
2022-07-29T14:57:12.178Z,101851.63
2022-07-29T14:59:38.672Z,101853.59
2022-07-29T15:02:05.140Z,101851.81
2022-07-29T15:04:31.581Z,101866.13
2022-07-29T15:06:58.759Z,101858.25
2022-07-29T15:09:25.320Z,101863.94
2022-07-29T15:11:51.838Z,101859.88
2022-07-29T15:14:18.226Z,101861.03
2022-07-29T15:16:46.611Z,101860.34
2022-07-29T15:19:14.412Z,101866.13
2022-07-29T15:21:41.462Z,101866.34
2022-07-29T15:24:14.807Z,101859.78
2022-07-29T15:26:43.250Z,101853.44
2022-07-29T15:29:10.300Z,101855.34
2022-07-29T15:31:36.921Z,101855.53
2022-07-29T15:34:05.865Z,101851.03
2022-07-29T15:39:19.937Z,101852.25
2022-07-29T15:41:46.753Z,101848.53
2022-07-29T15:44:13.169Z,101853.06
2022-07-29T15:46:57.975Z,101843.75
2022-07-29T15:49:31.338Z,101839.72
2022-07-29T15:52:15.823Z,101836.97
2022-07-29T15:54:42.304Z,101831.38
2022-07-29T15:57:09.825Z,101835.41
2022-07-29T15:59:36.263Z,101842.09
2022-07-29T16:02:03.538Z,101841.25
2022-07-29T16:04:29.956Z,101838.06
2022-07-29T16:06:57.334Z,101831.09
2022-07-29T16:09:24.290Z,101835.19
2022-07-29T16:11:54.004Z,101837.31
2022-07-29T16:14:21.087Z,101838.03
2022-07-29T16:16:48.222Z,101834.09
2022-07-29T16:19:14.892Z,101829.44
2022-07-29T16:21:41.308Z,101835.88
2022-07-29T16:24:08.001Z,101835.88
2022-07-29T16:26:35.063Z,101831.09
2022-07-29T16:29:01.550Z,101837.88
2022-07-29T16:31:28.042Z,101840.50
2022-07-29T16:33:56.075Z,101831.66
2022-07-29T16:36:23.075Z,101840.88
2022-07-29T16:38:51.097Z,101830.78
2022-07-29T16:41:17.558Z,101836.75
2022-07-29T16:43:44.110Z,101811.56
2022-07-29T16:46:15.665Z,101829.34
2022-07-29T16:48:45.387Z,101836.25
2022-07-29T16:51:12.091Z,101824.06
2022-07-29T16:53:41.192Z,101829.09
2022-07-29T16:56:08.484Z,101817.22
2022-07-29T16:58:41.760Z,101825.31
2022-07-29T17:01:10.192Z,101830.50
2022-07-29T17:03:59.937Z,101826.69
2022-07-29T17:06:28.598Z,101816.16
2022-07-29T17:08:55.894Z,101803.75
2022-07-29T17:11:22.280Z,101821.91
2022-07-29T17:14:10.106Z,101829.31
2022-07-29T17:16:36.823Z,101824.66
2022-07-29T17:19:04.433Z,101827.19
2022-07-29T17:21:30.874Z,101830.38
2022-07-29T17:23:59.200Z,101823.09
2022-07-29T17:26:27.506Z,101818.94
2022-07-29T17:28:55.071Z,101831.09
2022-07-29T17:31:21.605Z,101827.97
2022-07-29T17:33:48.041Z,101794.56
2022-07-29T17:36:29.685Z,101837.28
2022-07-29T17:38:58.976Z,101829.50
2022-07-29T17:41:25.561Z,101829.16
2022-07-29T17:43:52.436Z,101828.31
2022-07-29T17:46:20.371Z,101833.53
2022-07-29T17:48:46.894Z,101841.66
2022-07-29T17:51:13.567Z,101842.63
2022-07-29T17:53:40.184Z,101839.75
2022-07-29T17:56:07.058Z,101839.47
2022-07-29T17:58:34.649Z,101834.16
2022-07-29T18:03:27.289Z,101835.78
2022-07-29T18:05:53.783Z,101841.97
2022-07-29T18:08:20.360Z,101830.72
2022-07-29T18:10:46.866Z,101840.06
2022-07-29T18:13:13.779Z,101842.81
2022-07-29T18:15:40.961Z,101834.38
2022-07-29T18:18:07.392Z,101838.72
2022-07-29T18:20:34.100Z,101830.41
2022-07-29T18:23:01.472Z,101836.41
2022-07-29T18:25:28.847Z,101841.41
2022-07-29T18:28:00.137Z,101837.81
2022-07-29T18:30:28.126Z,101837.81
2022-07-29T18:33:19.672Z,101815.59
2022-07-29T18:35:41.152Z,101842.59
2022-07-29T18:38:07.549Z,101839.75
2022-07-29T18:40:34.012Z,101844.66
2022-07-29T18:43:00.481Z,101843.47
2022-07-29T18:45:28.503Z,101850.47
2022-07-29T18:47:55.344Z,101848.19
2022-07-29T18:50:28.907Z,101848.91
2022-07-29T18:52:58.234Z,101859.00
2022-07-29T18:55:25.559Z,101853.56
2022-07-29T18:57:55.792Z,101859.88
2022-07-29T19:00:24.346Z,101860.13
2022-07-29T19:02:51.530Z,101836.28
2022-07-29T19:05:18.222Z,101859.75
2022-07-29T19:07:44.640Z,101867.13
2022-07-29T19:10:11.757Z,101882.88
2022-07-29T19:12:38.230Z,101876.34
2022-07-29T19:15:04.918Z,101877.19
2022-07-29T19:17:31.404Z,101867.78
2022-07-29T19:19:58.081Z,101887.91
2022-07-29T19:22:24.853Z,101891.72
2022-07-29T19:24:51.437Z,101880.78
2022-07-29T19:27:17.935Z,101894.81
2022-07-29T19:29:44.582Z,101890.63
2022-07-29T19:32:11.205Z,101891.25
2022-07-29T19:34:38.261Z,101909.91
2022-07-29T19:37:05.295Z,101912.56
2022-07-29T19:39:35.261Z,101912.13
2022-07-29T19:42:03.508Z,101912.53
2022-07-29T19:44:30.137Z,101909.81
2022-07-29T19:46:56.893Z,101920.03
2022-07-29T19:49:23.632Z,101917.00
2022-07-29T19:51:50.122Z,101921.19
2022-07-29T19:54:18.208Z,101907.78
2022-07-29T19:56:45.096Z,101915.53
2022-07-29T19:59:11.946Z,101920.28
2022-07-29T20:01:39.555Z,101926.06
2022-07-29T20:04:06.070Z,101920.19
2022-07-29T20:06:32.623Z,101912.53
2022-07-29T20:08:59.229Z,101923.78
2022-07-29T20:11:26.520Z,101921.72
2022-07-29T20:13:52.952Z,101912.53
2022-07-29T20:16:19.438Z,101917.72
2022-07-29T20:18:45.867Z,101913.56
2022-07-29T20:21:12.253Z,101910.03
2022-07-29T20:23:38.921Z,101909.31
2022-07-29T20:26:09.362Z,101918.28
2022-07-29T20:28:37.062Z,101913.34
2022-07-29T20:31:03.568Z,101930.09
2022-07-29T20:33:31.069Z,101925.44
2022-07-29T20:35:57.479Z,101922.72
2022-07-29T20:38:23.930Z,101897.03
2022-07-29T20:40:50.852Z,101923.75
2022-07-29T20:43:17.341Z,101931.00
2022-07-29T20:45:43.824Z,101930.69
2022-07-29T20:48:10.591Z,101931.81
2022-07-29T20:50:37.116Z,101931.22
2022-07-29T20:53:03.667Z,101932.06
2022-07-29T20:55:31.858Z,101932.19
2022-07-29T20:57:58.688Z,101934.38
2022-07-29T21:00:25.102Z,101934.72
2022-07-29T21:02:51.665Z,101912.97
2022-07-29T21:05:18.173Z,101944.03
2022-07-29T21:07:44.692Z,101911.41
2022-07-29T21:10:11.259Z,101947.53
2022-07-29T21:12:37.748Z,101949.06
2022-07-29T21:15:06.487Z,101950.19
2022-07-29T21:17:35.934Z,101949.19
2022-07-29T21:20:05.355Z,101953.53
2022-07-29T21:22:31.912Z,101912.97
2022-07-29T21:24:58.364Z,101938.63
2022-07-29T21:27:43.773Z,101959.31
2022-07-29T21:30:11.516Z,101955.38
2022-07-29T21:32:37.950Z,101951.56
2022-07-29T21:35:14.532Z,101940.94
2022-07-29T21:37:51.400Z,101960.25
2022-07-29T21:40:17.825Z,101965.31
2022-07-29T21:42:44.272Z,101963.22
2022-07-29T21:45:13.378Z,101965.47
2022-07-29T21:47:39.789Z,101969.38
2022-07-29T21:50:06.578Z,101974.34
2022-07-29T21:52:33.020Z,101966.94
2022-07-29T21:54:59.588Z,101967.53
2022-07-29T21:57:26.860Z,101963.56
2022-07-29T21:59:53.320Z,101958.59
2022-07-29T22:02:19.746Z,101928.97
2022-07-29T22:04:46.207Z,101938.22
2022-07-29T22:07:12.685Z,101928.66
2022-07-29T22:09:39.087Z,101963.75
2022-07-29T22:12:06.090Z,101971.91
2022-07-29T22:14:32.543Z,101976.53
2022-07-29T22:17:00.033Z,101982.84
2022-07-29T22:19:27.375Z,101953.72
2022-07-29T22:21:54.070Z,101968.97
2022-07-29T22:24:20.566Z,101961.72
2022-07-29T22:26:46.998Z,101976.25
2022-07-29T22:29:16.835Z,101970.09
2022-07-29T22:31:44.312Z,101976.59
2022-07-29T22:34:13.237Z,101979.59
2022-07-29T22:36:40.980Z,101975.63
2022-07-29T22:39:07.556Z,101986.81
2022-07-29T22:41:33.980Z,101988.13
2022-07-29T22:44:00.444Z,101990.69
2022-07-29T22:46:26.989Z,101988.50
2022-07-29T22:48:53.538Z,101988.19
2022-07-29T22:51:20.005Z,101992.22
2022-07-29T22:53:46.977Z,101994.53
2022-07-29T22:56:13.707Z,101981.97
2022-07-29T22:58:40.169Z,101986.16
2022-07-29T23:01:06.641Z,101984.16
2022-07-29T23:03:33.270Z,101983.38
2022-07-29T23:06:00.024Z,101986.13
2022-07-29T23:08:26.459Z,101979.09
2022-07-29T23:10:52.963Z,101962.38
2022-07-29T23:13:19.361Z,101981.47
2022-07-29T23:15:45.838Z,101951.19
2022-07-29T23:18:12.370Z,101975.03
2022-07-29T23:20:38.800Z,101969.78
2022-07-29T23:23:05.287Z,101970.81
2022-07-29T23:25:32.111Z,101974.84
2022-07-29T23:27:58.696Z,101969.59
2022-07-29T23:30:25.477Z,101965.03
2022-07-29T23:32:52.216Z,101960.84
2022-07-29T23:35:18.743Z,101947.84
2022-07-29T23:37:45.207Z,101970.13
2022-07-29T23:40:14.555Z,101956.75
2022-07-29T23:42:42.641Z,101956.28
2022-07-29T23:45:10.114Z,101962.31
2022-07-29T23:47:36.520Z,101959.28
2022-07-29T23:50:03.283Z,101949.47
2022-07-29T23:52:29.691Z,101958.56
2022-07-29T23:55:36.744Z,101942.88
2022-07-29T23:57:44.137Z,101952.53
